Time;durP1;ratioP1;P1;durP2;ratioP2;P2;SDS_P1;SDS_P2;PMS_P1;PMS_P2;Temp;Humidity;BMP_temperature;BMP_pressure;BME280_temperature;BME280_humidity;BME280_pressure;Samples;Min_cycle;Max_cycle;Signal;HPM_P1;HPM_P2
2023/01/16 00:00:50;;;;;;;;;;;;;;;26.81;28.36;100886.41;5077314;28;1118;-22
2023/01/16 00:03:15;;;;;;;;;;;;;;;26.77;28.10;100884.06;5076784;28;1060;-22
2023/01/16 00:05:40;;;;;;;;;;;;;;;27.08;27.08;100879.69;5076716;28;1040;-22
2023/01/16 00:08:06;;;;;;;;;;;;;;;27.02;26.80;100883.97;5058675;28;1193;-22
2023/01/16 00:10:31;;;;;;;;;;;;;;;27.00;27.00;100885.94;5076808;28;1824;-22
2023/01/16 00:12:56;;;;;;;;;;;;;;;26.75;27.69;100880.72;5076996;28;1972;-22
2023/01/16 00:15:22;;;;;;;;;;;;;;;26.72;27.26;100877.53;5076923;28;1140;-22
2023/01/16 00:17:48;;;;;;;;;;;;;;;27.07;26.42;100877.16;5076843;28;1126;-22
2023/01/16 00:20:13;;;;;;;;;;;;;;;26.97;26.75;100878.22;5075090;28;1008;-21
2023/01/16 00:22:38;;;;;;;;;;;;;;;26.84;26.43;100872.56;5072666;28;1227;-22
2023/01/16 00:25:04;;;;;;;;;;;;;;;26.64;26.90;100873.00;5076983;28;1032;-22
2023/01/16 00:27:29;;;;;;;;;;;;;;;26.85;26.96;100864.28;5076579;28;1031;-22
2023/01/16 00:29:54;;;;;;;;;;;;;;;27.05;25.44;100863.84;5067597;28;1055;-22
2023/01/16 00:32:20;;;;;;;;;;;;;;;26.81;26.65;100864.81;5071986;28;1901;-22
2023/01/16 00:34:45;;;;;;;;;;;;;;;26.84;27.28;100853.66;5076473;28;1022;-24
2023/01/16 00:37:10;;;;;;;;;;;;;;;26.80;28.18;100846.94;5076063;28;1092;-22
2023/01/16 00:39:38;;;;;;;;;;;;;;;27.17;27.92;100853.47;5076727;28;1135;-22
2023/01/16 00:42:03;;;;;;;;;;;;;;;27.08;28.00;100854.53;5072576;28;2739;-22
2023/01/16 00:44:28;;;;;;;;;;;;;;;27.09;27.27;100848.13;5075485;28;1059;-22
2023/01/16 00:46:54;;;;;;;;;;;;;;;26.80;28.42;100845.09;5076236;28;1237;-22
2023/01/16 00:49:19;;;;;;;;;;;;;;;26.80;28.47;100842.38;5076468;28;1031;-22
2023/01/16 00:51:44;;;;;;;;;;;;;;;27.00;27.80;100844.59;5075987;28;1906;-22
2023/01/16 00:54:10;;;;;;;;;;;;;;;26.95;27.53;100847.00;5076380;28;999;-23
2023/01/16 00:56:35;;;;;;;;;;;;;;;26.97;27.92;100840.44;5075829;28;1012;-22
2023/01/16 00:59:00;;;;;;;;;;;;;;;26.71;28.17;100843.47;5076375;28;1060;-22
2023/01/16 01:01:25;;;;;;;;;;;;;;;26.94;28.11;100838.09;5076278;28;1141;-22
2023/01/16 01:03:51;;;;;;;;;;;;;;;27.18;26.80;100838.09;5075781;28;1110;-23
2023/01/16 01:06:16;;;;;;;;;;;;;;;26.94;27.36;100827.28;5076477;28;1094;-23
2023/01/16 01:08:41;;;;;;;;;;;;;;;26.99;27.34;100826.75;5076134;28;1182;-21
2023/01/16 01:11:10;;;;;;;;;;;;;;;26.80;27.94;100828.03;5064625;28;1981;-22
2023/01/16 01:13:36;;;;;;;;;;;;;;;26.98;27.46;100828.59;5075983;28;1094;-22
2023/01/16 01:16:01;;;;;;;;;;;;;;;27.25;27.10;100818.28;5075702;28;1166;-22
2023/01/16 01:18:27;;;;;;;;;;;;;;;26.88;27.56;100827.97;5075413;28;1019;-21
2023/01/16 01:20:52;;;;;;;;;;;;;;;26.88;27.60;100811.78;5075241;28;1036;-22
2023/01/16 01:23:17;;;;;;;;;;;;;;;26.73;27.56;100807.19;5075953;28;1023;-22
2023/01/16 01:25:42;;;;;;;;;;;;;;;26.96;27.17;100806.34;5075575;28;1043;-22
2023/01/16 01:28:08;;;;;;;;;;;;;;;27.25;26.79;100795.84;5075807;28;1091;-22
2023/01/16 01:30:33;;;;;;;;;;;;;;;27.07;26.63;100802.41;5076042;28;1055;-22
2023/01/16 01:32:58;;;;;;;;;;;;;;;26.85;27.17;100799.50;5075235;28;1895;-22
2023/01/16 01:35:24;;;;;;;;;;;;;;;26.73;27.37;100796.38;5062879;28;1096;-22
2023/01/16 01:37:49;;;;;;;;;;;;;;;26.76;27.70;100793.31;5076077;28;1202;-22
2023/01/16 01:40:14;;;;;;;;;;;;;;;27.23;26.27;100795.16;5071324;28;2412;-22
2023/01/16 01:42:43;;;;;;;;;;;;;;;26.99;26.62;100795.16;5075542;28;1056;-22
2023/01/16 01:45:11;;;;;;;;;;;;;;;26.93;26.84;100790.50;5075451;28;979;-22
2023/01/16 01:47:37;;;;;;;;;;;;;;;26.62;27.34;100797.66;5075884;28;1139;-22
2023/01/16 01:50:04;;;;;;;;;;;;;;;26.80;27.48;100796.50;5057730;28;1170;-22
2023/01/16 01:52:29;;;;;;;;;;;;;;;27.15;26.45;100798.78;5057005;28;1972;-22
2023/01/16 01:54:56;;;;;;;;;;;;;;;26.97;26.88;100802.63;5075099;28;969;-23
2023/01/16 01:57:28;;;;;;;;;;;;;;;26.96;26.76;100802.81;5075260;28;1040;-22
2023/01/16 01:59:58;;;;;;;;;;;;;;;26.69;27.26;100802.31;5057351;28;1051;-22
2023/01/16 02:02:24;;;;;;;;;;;;;;;27.02;26.61;100804.81;5057425;28;1056;-23
2023/01/16 02:04:51;;;;;;;;;;;;;;;27.13;26.35;100804.38;5075407;28;1123;-23
2023/01/16 02:07:17;;;;;;;;;;;;;;;27.19;25.48;100799.28;5057518;28;1111;-22
2023/01/16 02:09:42;;;;;;;;;;;;;;;26.77;26.89;100800.41;5056871;28;1793;-24
2023/01/16 02:12:08;;;;;;;;;;;;;;;26.75;26.81;100791.66;5073286;28;1967;-22
2023/01/16 02:14:35;;;;;;;;;;;;;;;26.99;26.30;100788.94;5075685;28;1231;-24
2023/01/16 02:19:57;;;;;;;;;;;;;;;27.23;25.11;100787.06;5075206;28;1023;-22
2023/01/16 02:22:29;;;;;;;;;;;;;;;26.83;26.11;100789.91;5074924;28;1032;-22
2023/01/16 02:25:13;;;;;;;;;;;;;;;26.93;26.17;100786.94;5057801;28;1171;-22
2023/01/16 02:28:17;;;;;;;;;;;;;;;27.24;25.62;100784.19;5075416;28;1067;-22
2023/01/16 02:31:01;;;;;;;;;;;;;;;26.95;25.59;100783.06;4994788;28;1973;-22
2023/01/16 02:33:36;;;;;;;;;;;;;;;26.74;26.18;100789.13;4996964;28;1200;-22
2023/01/16 02:36:04;;;;;;;;;;;;;;;26.84;26.09;100787.00;5050840;28;1156;-23
2023/01/16 02:38:48;;;;;;;;;;;;;;;27.11;25.55;100789.41;5079289;28;1110;-22
2023/01/16 02:41:22;;;;;;;;;;;;;;;27.22;25.58;100794.34;5067174;28;2489;-22
2023/01/16 02:44:17;;;;;;;;;;;;;;;26.76;26.27;100787.06;5078859;28;1016;-23
2023/01/16 02:46:47;;;;;;;;;;;;;;;26.75;25.92;100796.19;5061098;28;1497;-22
2023/01/16 02:49:16;;;;;;;;;;;;;;;27.16;25.57;100794.25;5060148;28;1202;-22
2023/01/16 02:51:53;;;;;;;;;;;;;;;27.11;25.61;100784.00;5078594;28;1972;-22
2023/01/16 02:54:18;;;;;;;;;;;;;;;26.89;25.54;100787.31;5078310;28;1028;-22
2023/01/16 02:56:45;;;;;;;;;;;;;;;26.81;25.56;100771.19;5078602;28;1071;-22
2023/01/16 02:59:11;;;;;;;;;;;;;;;26.92;25.57;100769.09;5060500;28;951;-22
2023/01/16 03:01:40;;;;;;;;;;;;;;;27.07;25.54;100774.56;5061010;28;1219;-23
2023/01/16 03:04:06;;;;;;;;;;;;;;;27.14;25.20;100770.13;5078319;28;1205;-22
2023/01/16 03:06:42;;;;;;;;;;;;;;;26.89;25.55;100767.59;5078390;28;1035;-22
2023/01/16 03:09:19;;;;;;;;;;;;;;;26.76;25.85;100768.19;5078643;28;1067;-22
2023/01/16 03:11:47;;;;;;;;;;;;;;;27.06;25.19;100762.91;5066485;28;2477;-22
2023/01/16 03:14:31;;;;;;;;;;;;;;;26.93;25.37;100758.09;5060787;28;1111;-23
2023/01/16 03:17:15;;;;;;;;;;;;;;;27.03;25.34;100755.19;5067229;28;1418;-22
2023/01/16 03:19:43;;;;;;;;;;;;;;;26.55;26.12;100749.97;5078111;28;1135;-23
2023/01/16 03:22:11;;;;;;;;;;;;;;;26.88;25.71;100753.25;5077480;28;1240;-22
2023/01/16 03:24:46;;;;;;;;;;;;;;;27.19;25.24;100756.91;5078009;28;1159;-22
2023/01/16 03:27:17;;;;;;;;;;;;;;;27.05;25.08;100758.56;5077965;28;1055;-23
2023/01/16 03:30:05;;;;;;;;;;;;;;;26.94;25.16;100759.81;5077780;28;1102;-23
2023/01/16 03:32:35;;;;;;;;;;;;;;;26.52;26.17;100760.13;5066347;28;1914;-24
2023/01/16 03:35:13;;;;;;;;;;;;;;;26.95;25.46;100747.97;5059948;28;829;-22
2023/01/16 03:37:46;;;;;;;;;;;;;;;27.18;24.91;100749.81;5077650;28;1112;-21
2023/01/16 03:40:12;;;;;;;;;;;;;;;27.25;24.90;100749.94;5055998;28;2427;-22
2023/01/16 03:42:38;;;;;;;;;;;;;;;26.97;25.22;100745.94;5077520;28;1528;-22
2023/01/16 03:45:24;;;;;;;;;;;;;;;26.72;25.93;100750.69;5077612;28;1158;-22
2023/01/16 03:47:51;;;;;;;;;;;;;;;26.97;25.51;100753.19;5076771;28;1548;-23
2023/01/16 03:50:17;;;;;;;;;;;;;;;27.13;24.95;100752.22;5059765;28;1163;-23
2023/01/16 03:52:46;;;;;;;;;;;;;;;26.92;25.50;100751.03;5059461;28;1906;-22
2023/01/16 03:55:14;;;;;;;;;;;;;;;26.83;25.58;100750.25;5059183;28;1029;-21
2023/01/16 03:57:41;;;;;;;;;;;;;;;26.75;25.70;100743.09;5077429;28;1163;-22
2023/01/16 04:00:08;;;;;;;;;;;;;;;27.07;24.80;100744.88;5058188;28;954;-22
2023/01/16 04:02:53;;;;;;;;;;;;;;;27.04;25.25;100740.69;5077974;28;1140;-22
2023/01/16 04:05:18;;;;;;;;;;;;;;;27.07;25.47;100745.72;5059240;28;976;-22
2023/01/16 04:07:44;;;;;;;;;;;;;;;26.65;26.16;100739.78;5077363;28;1210;-22
2023/01/16 04:10:10;;;;;;;;;;;;;;;26.80;26.21;100738.97;5076358;28;2255;-23
2023/01/16 04:12:36;;;;;;;;;;;;;;;27.08;25.01;100746.53;5059012;28;1902;-22
2023/01/16 04:15:02;;;;;;;;;;;;;;;26.94;25.81;100735.50;5059001;28;1199;-22
2023/01/16 04:17:27;;;;;;;;;;;;;;;26.97;26.19;100737.84;5077137;28;1126;-23
2023/01/16 04:19:52;;;;;;;;;;;;;;;26.75;26.54;100737.69;5058931;28;1273;-22
2023/01/16 04:22:19;;;;;;;;;;;;;;;26.86;26.20;100741.81;5076111;28;1011;-22
2023/01/16 04:24:44;;;;;;;;;;;;;;;26.99;24.98;100738.47;5077095;28;1023;-22
2023/01/16 04:27:09;;;;;;;;;;;;;;;26.90;25.77;100745.81;5076330;28;1031;-22
2023/01/16 04:29:35;;;;;;;;;;;;;;;26.70;25.99;100734.69;5076310;28;1004;-22
2023/01/16 04:32:00;;;;;;;;;;;;;;;26.67;26.02;100737.75;5076593;28;1960;-22
2023/01/16 04:34:25;;;;;;;;;;;;;;;26.85;25.85;100733.88;5076113;28;1194;-22
2023/01/16 04:36:51;;;;;;;;;;;;;;;26.83;25.30;100739.47;5076782;28;1008;-22
2023/01/16 04:39:16;;;;;;;;;;;;;;;26.08;25.24;100729.16;5076359;28;1157;-22
2023/01/16 04:41:41;;;;;;;;;;;;;;;26.33;25.96;100737.13;5072916;28;2620;-22
2023/01/16 04:44:07;;;;;;;;;;;;;;;26.36;25.55;100731.38;5075796;28;1063;-21
2023/01/16 04:46:32;;;;;;;;;;;;;;;26.62;25.43;100729.34;5076598;28;1217;-22
2023/01/16 04:48:58;;;;;;;;;;;;;;;27.21;23.81;100727.03;5076297;28;1116;-22
2023/01/16 04:51:23;;;;;;;;;;;;;;;25.86;24.70;100726.22;5076276;28;1902;-22
2023/01/16 04:53:48;;;;;;;;;;;;;;;25.62;26.04;100719.03;5075868;28;1167;-22
2023/01/16 04:56:14;;;;;;;;;;;;;;;26.50;24.75;100718.13;5076269;28;1536;-21
2023/01/16 04:58:39;;;;;;;;;;;;;;;26.85;24.61;100715.00;5075600;28;1114;-22
2023/01/16 05:01:04;;;;;;;;;;;;;;;26.32;23.80;100710.31;5076496;28;1123;-25
2023/01/16 05:03:29;;;;;;;;;;;;;;;25.05;24.75;100711.78;5076170;28;1056;-22
2023/01/16 05:05:55;;;;;;;;;;;;;;;25.70;25.06;100708.25;5076302;28;1226;-22
2023/01/16 05:08:25;;;;;;;;;;;;;;;25.95;24.16;100702.75;5076020;28;1107;-21
2023/01/16 05:10:50;;;;;;;;;;;;;;;25.95;23.90;100697.38;5069509;28;1994;-22
2023/01/16 05:13:16;;;;;;;;;;;;;;;26.65;22.89;100699.31;5059621;28;1017;-22
2023/01/16 05:15:43;;;;;;;;;;;;;;;25.74;23.92;100690.72;5065188;28;1099;-23
2023/01/16 05:18:08;;;;;;;;;;;;;;;25.64;24.14;100692.81;5061756;28;1108;-21
2023/01/16 05:20:33;;;;;;;;;;;;;;;25.58;23.82;100702.38;5074663;28;1476;-22
2023/01/16 05:22:59;;;;;;;;;;;;;;;26.72;22.43;100702.13;5062681;28;1214;-21
2023/01/16 05:25:24;;;;;;;;;;;;;;;25.77;23.49;100705.72;5063396;28;1131;-21
2023/01/16 05:27:49;;;;;;;;;;;;;;;26.17;23.04;100700.28;5074866;28;1047;-21
2023/01/16 05:30:15;;;;;;;;;;;;;;;27.26;22.03;100703.81;5063386;28;1064;-21
2023/01/16 05:32:40;;;;;;;;;;;;;;;26.83;22.66;100696.28;5062346;28;1987;-21
2023/01/16 05:35:06;;;;;;;;;;;;;;;26.61;22.73;100690.72;5045946;28;1185;-21
2023/01/16 05:37:31;;;;;;;;;;;;;;;26.84;23.12;100678.25;5069153;28;1039;-21
2023/01/16 05:39:57;;;;;;;;;;;;;;;26.94;22.74;100686.94;5057717;28;1917;-21
2023/01/16 05:42:24;;;;;;;;;;;;;;;27.32;22.01;100683.34;5073495;28;1140;-21
2023/01/16 05:44:49;;;;;;;;;;;;;;;27.59;21.28;100682.88;5064065;28;1167;-21
2023/01/16 05:47:15;;;;;;;;;;;;;;;25.90;22.81;100659.34;5055698;28;1040;-21
2023/01/16 05:49:40;;;;;;;;;;;;;;;24.33;24.70;100659.44;5067755;28;1151;-21
2023/01/16 05:52:05;;;;;;;;;;;;;;;25.92;23.50;100670.78;5075606;28;1907;-21
2023/01/16 05:54:30;;;;;;;;;;;;;;;26.86;22.33;100660.81;5066248;28;997;-21
2023/01/16 05:56:56;;;;;;;;;;;;;;;26.82;22.43;100662.22;5066342;28;1167;-22
2023/01/16 05:59:21;;;;;;;;;;;;;;;26.56;22.42;100663.44;5071100;28;1167;-22
2023/01/16 06:01:46;;;;;;;;;;;;;;;26.84;22.54;100667.44;5075077;28;1069;-21
2023/01/16 06:04:11;;;;;;;;;;;;;;;26.84;22.57;100664.75;5068411;28;980;-21
2023/01/16 06:06:37;;;;;;;;;;;;;;;27.10;23.21;100666.19;5079261;28;1229;-21
2023/01/16 06:09:02;;;;;;;;;;;;;;;27.55;22.67;100676.16;5079708;28;1024;-21
2023/01/16 06:11:27;;;;;;;;;;;;;;;26.48;23.76;100667.06;5059101;28;2067;-21
2023/01/16 06:13:53;;;;;;;;;;;;;;;25.94;24.78;100671.44;5059258;28;1524;-21
2023/01/16 06:16:18;;;;;;;;;;;;;;;26.81;24.04;100675.91;5059362;28;1114;-21
2023/01/16 06:18:43;;;;;;;;;;;;;;;27.21;23.35;100681.13;5073118;28;1127;-21
2023/01/16 06:21:09;;;;;;;;;;;;;;;26.45;24.24;100678.22;5059353;28;1135;-21
2023/01/16 06:23:34;;;;;;;;;;;;;;;26.53;24.10;100675.47;5072329;28;1308;-21
2023/01/16 06:26:00;;;;;;;;;;;;;;;26.70;24.24;100683.41;5072091;28;1016;-21
2023/01/16 06:28:26;;;;;;;;;;;;;;;27.20;23.72;100685.66;5072318;28;1187;-21
2023/01/16 06:30:52;;;;;;;;;;;;;;;27.56;23.03;100689.47;5075851;28;1959;-20
2023/01/16 06:33:17;;;;;;;;;;;;;;;25.93;25.34;100688.63;5078362;28;1013;-21
2023/01/16 06:35:42;;;;;;;;;;;;;;;26.02;25.71;100682.19;5076650;28;858;-21
2023/01/16 06:38:08;;;;;;;;;;;;;;;26.96;25.01;100682.16;5069062;28;1088;-20
2023/01/16 06:40:33;;;;;;;;;;;;;;;26.89;24.47;100690.16;5064536;28;1116;-20
2023/01/16 06:42:58;;;;;;;;;;;;;;;26.64;24.91;100681.44;5069004;28;1048;-20
2023/01/16 06:45:24;;;;;;;;;;;;;;;26.94;25.39;100688.78;5072403;28;1143;-21
2023/01/16 06:47:52;;;;;;;;;;;;;;;26.86;25.22;100687.00;5059241;28;1020;-20
2023/01/16 06:50:18;;;;;;;;;;;;;;;27.23;24.50;100682.59;5072399;28;1134;-21
2023/01/16 06:52:43;;;;;;;;;;;;;;;26.54;25.12;100681.69;5052527;28;1906;-21
2023/01/16 06:55:08;;;;;;;;;;;;;;;26.50;25.41;100675.81;5078815;28;971;-21
2023/01/16 06:57:35;;;;;;;;;;;;;;;26.73;25.31;100674.09;5068210;28;1127;-21
2023/01/16 07:00:00;;;;;;;;;;;;;;;26.98;24.82;100680.13;5063200;28;1048;-21
2023/01/16 07:02:26;;;;;;;;;;;;;;;27.17;24.69;100677.09;5076172;28;1129;-21
2023/01/16 07:04:51;;;;;;;;;;;;;;;26.56;25.68;100674.25;5064671;28;1439;-21
2023/01/16 07:07:16;;;;;;;;;;;;;;;26.48;25.68;100663.53;5078607;28;1079;-21
2023/01/16 07:09:42;;;;;;;;;;;;;;;27.09;25.17;100651.84;5065408;28;1207;-21
2023/01/16 07:12:07;;;;;;;;;;;;;;;27.34;24.83;100662.38;5077869;28;1894;-21
2023/01/16 07:22:45;;;;;;;;;;;;;;;27.38;24.92;100654.75;5061281;28;1039;-21
2023/01/16 07:25:21;;;;;;;;;;;;;;;26.20;24.27;100639.75;5058373;28;1005;-21
2023/01/16 07:27:47;;;;;;;;;;;;;;;25.92;24.93;100638.44;5076426;28;1109;-21
2023/01/16 07:30:13;;;;;;;;;;;;;;;26.93;24.29;100641.19;5060332;28;1149;-21
2023/01/16 07:32:38;;;;;;;;;;;;;;;27.35;24.25;100641.63;5072895;28;1899;-22
2023/01/16 07:35:04;;;;;;;;;;;;;;;26.81;24.88;100633.53;5060011;28;1076;-21
2023/01/16 07:37:29;;;;;;;;;;;;;;;26.62;25.34;100629.53;5065282;28;903;-21
2023/01/16 07:39:54;;;;;;;;;;;;;;;26.97;24.62;100620.91;5071092;28;1179;-21
2023/01/16 07:42:20;;;;;;;;;;;;;;;27.18;24.78;100619.34;5065146;28;1115;-21
2023/01/16 07:44:45;;;;;;;;;;;;;;;27.10;24.47;100609.50;5063904;28;1040;-21
2023/01/16 07:47:12;;;;;;;;;;;;;;;27.03;24.98;100606.69;5077537;28;1075;-22
2023/01/16 07:49:37;;;;;;;;;;;;;;;26.85;25.16;100604.34;5064647;28;1162;-21
2023/01/16 07:52:03;;;;;;;;;;;;;;;26.71;25.18;100606.84;5077619;28;1894;-21
2023/01/16 07:54:28;;;;;;;;;;;;;;;27.16;24.93;100602.53;5064788;28;1139;-21
2023/01/16 07:56:53;;;;;;;;;;;;;;;27.50;24.19;100601.06;5077593;28;1203;-21
2023/01/16 07:59:18;;;;;;;;;;;;;;;27.06;25.09;100594.72;5058399;28;1052;-21
2023/01/16 08:01:46;;;;;;;;;;;;;;;27.20;24.97;100604.66;5057527;28;864;-22
2023/01/16 08:04:11;;;;;;;;;;;;;;;27.29;24.85;100599.16;5071117;28;1111;-21
2023/01/16 08:06:37;;;;;;;;;;;;;;;27.77;24.31;100604.13;5070532;28;1120;-21
2023/01/16 08:09:02;;;;;;;;;;;;;;;28.56;23.22;100592.59;5058085;28;1035;-21
2023/01/16 08:11:37;;;;;;;;;;;;;;;28.06;23.38;100599.63;5069813;28;1966;-21
2023/01/16 08:14:03;;;;;;;;;;;;;;;27.94;23.90;100601.19;5064970;28;861;-21
2023/01/16 08:16:28;;;;;;;;;;;;;;;28.71;23.08;100592.50;5063576;28;1143;-21
2023/01/16 08:18:53;;;;;;;;;;;;;;;28.09;23.54;100582.19;5076821;28;1124;-22
2023/01/16 08:21:18;;;;;;;;;;;;;;;27.66;23.87;100580.28;5064147;28;1111;-21
2023/01/16 08:23:44;;;;;;;;;;;;;;;28.23;23.68;100583.13;5066145;28;1092;-21
2023/01/16 08:26:09;;;;;;;;;;;;;;;28.57;23.28;100587.00;5069642;28;861;-21
2023/01/16 08:28:35;;;;;;;;;;;;;;;28.80;22.94;100576.91;5074306;28;1167;-21
2023/01/16 08:31:07;;;;;;;;;;;;;;;28.11;23.52;100586.38;5070259;28;1960;-21
2023/01/16 08:33:32;;;;;;;;;;;;;;;28.68;22.93;100590.16;5076598;28;1036;-21
2023/01/16 08:35:59;;;;;;;;;;;;;;;28.90;22.96;100598.22;5071621;28;1158;-21
2023/01/16 08:38:24;;;;;;;;;;;;;;;28.06;23.47;100590.69;5068004;28;1098;-21
2023/01/16 08:40:49;;;;;;;;;;;;;;;28.10;23.69;100589.25;5070032;28;1055;-21
2023/01/16 08:51:26;;;;;;;;;;;;;;;27.52;24.21;100593.63;5076517;28;1961;-21
2023/01/16 08:53:52;;;;;;;;;;;;;;;28.46;23.32;100590.25;5076881;28;1171;-21
2023/01/16 08:56:18;;;;;;;;;;;;;;;28.82;23.01;100591.94;5070995;28;1439;-21
2023/01/16 08:58:43;;;;;;;;;;;;;;;28.14;23.38;100584.31;5076735;28;1309;-21
2023/01/16 09:01:08;;;;;;;;;;;;;;;28.28;23.85;100583.38;5075202;28;1226;-21
2023/01/16 09:03:34;;;;;;;;;;;;;;;28.46;23.26;100574.00;5076085;28;1110;-21
2023/01/16 09:05:59;;;;;;;;;;;;;;;28.75;23.24;100582.09;5076392;28;1246;-21
2023/01/16 09:08:25;;;;;;;;;;;;;;;28.39;23.24;100579.38;5070739;28;1072;-22
2023/01/16 09:13:49;;;;;;;;;;;;;;;28.78;23.00;100565.47;5068993;28;1435;-22
2023/01/16 09:16:15;;;;;;;;;;;;;;;28.46;22.91;100560.47;5067335;28;1184;-21
2023/01/16 09:18:40;;;;;;;;;;;;;;;27.79;23.68;100558.84;5075680;28;1108;-21
2023/01/16 09:21:06;;;;;;;;;;;;;;;28.23;23.48;100551.53;5076209;28;1227;-20
2023/01/16 09:23:31;;;;;;;;;;;;;;;28.08;23.94;100546.19;5073211;28;1191;-21
2023/01/16 09:25:56;;;;;;;;;;;;;;;28.53;22.98;100533.47;5071960;28;926;-22
2023/01/16 09:28:21;;;;;;;;;;;;;;;28.96;22.78;100535.16;5071215;28;1306;-21
2023/01/16 09:30:47;;;;;;;;;;;;;;;28.36;23.06;100529.19;5072861;28;1298;-21
2023/01/16 09:33:12;;;;;;;;;;;;;;;27.52;24.12;100520.69;5066894;28;1960;-21
2023/01/16 09:35:37;;;;;;;;;;;;;;;28.30;23.49;100512.88;5069667;28;1128;-22
2023/01/16 09:38:03;;;;;;;;;;;;;;;28.89;22.66;100518.88;5066196;28;982;-22
2023/01/16 09:40:28;;;;;;;;;;;;;;;27.74;23.67;100512.63;5060545;28;1111;-22
2023/01/16 09:45:56;;;;;;;;;;;;;;;28.10;23.53;100492.75;5060398;28;879;-21
2023/01/16 09:48:24;;;;;;;;;;;;;;;28.41;23.10;100488.00;5056034;28;1093;-21
2023/01/16 09:50:50;;;;;;;;;;;;;;;28.96;22.58;100484.53;5061913;28;961;-21
2023/01/16 09:58:56;;;;;;;;;;;;;;;28.73;22.78;100474.03;5064719;28;1115;-21
2023/01/16 10:01:32;;;;;;;;;;;;;;;28.29;22.83;100467.94;5079368;28;1477;-21
2023/01/16 10:04:01;;;;;;;;;;;;;;;27.22;24.10;100478.41;5080138;28;1150;-21
2023/01/16 10:06:26;;;;;;;;;;;;;;;27.84;23.61;100471.75;5079784;28;1137;-21
2023/01/16 10:08:55;;;;;;;;;;;;;;;28.22;23.07;100471.44;5065738;28;1434;-20
2023/01/16 10:11:28;;;;;;;;;;;;;;;28.47;22.74;100462.03;5077961;28;1976;-22
2023/01/16 10:14:11;;;;;;;;;;;;;;;28.91;22.17;100457.22;5078376;28;1055;-21
2023/01/16 10:16:42;;;;;;;;;;;;;;;27.77;23.12;100450.06;5079492;28;1035;-21
2023/01/16 10:19:23;;;;;;;;;;;;;;;28.13;23.50;100442.84;5079038;28;1147;-20
2023/01/16 10:21:55;;;;;;;;;;;;;;;28.98;22.34;100442.94;5079540;28;1095;-21
2023/01/16 10:24:39;;;;;;;;;;;;;;;27.92;23.24;100444.59;5061575;28;1250;-21
2023/01/16 10:27:27;;;;;;;;;;;;;;;27.87;24.04;100436.22;5075530;28;917;-21
2023/01/16 10:29:57;;;;;;;;;;;;;;;28.32;23.13;100429.66;5068418;28;1290;-21
2023/01/16 10:32:24;;;;;;;;;;;;;;;28.65;22.87;100431.72;5061090;28;1955;-22
2023/01/16 10:34:49;;;;;;;;;;;;;;;28.32;22.92;100421.53;5079510;28;1242;-22
2023/01/16 10:37:15;;;;;;;;;;;;;;;27.63;23.62;100417.50;5078404;28;1082;-22
2023/01/16 10:39:40;;;;;;;;;;;;;;;28.45;22.91;100410.81;5079099;28;1123;-21
2023/01/16 10:50:26;;;;;;;;;;;;;;;28.00;23.07;100408.44;5062697;28;1218;-21
2023/01/16 10:52:51;;;;;;;;;;;;;;;27.54;21.81;100390.81;5059766;28;1977;-21
2023/01/16 10:55:16;;;;;;;;;;;;;;;28.43;21.20;100388.53;5060953;28;1455;-22
2023/01/16 10:57:46;;;;;;;;;;;;;;;28.97;20.96;100385.22;5078988;28;1255;-21
2023/01/16 11:00:19;;;;;;;;;;;;;;;27.23;23.68;100382.00;5061237;28;1172;-21
2023/01/16 11:02:47;;;;;;;;;;;;;;;26.78;23.99;100381.09;5078737;28;858;-22
2023/01/16 11:05:25;;;;;;;;;;;;;;;28.39;22.06;100376.47;5078486;28;1139;-21
2023/01/16 11:07:53;;;;;;;;;;;;;;;28.61;21.79;100370.94;5078657;28;1071;-21
2023/01/16 11:10:19;;;;;;;;;;;;;;;27.18;23.88;100365.53;5060639;28;1206;-21
2023/01/16 11:18:29;;;;;;;;;;;;;;;28.79;21.98;100356.00;5063237;28;1239;-21
2023/01/16 11:21:02;;;;;;;;;;;;;;;28.29;22.36;100347.06;5061345;28;1155;-21
2023/01/16 11:23:37;;;;;;;;;;;;;;;27.63;22.89;100349.09;5078148;28;1118;-21
2023/01/16 11:26:02;;;;;;;;;;;;;;;28.47;22.15;100349.25;5078426;28;1087;-21
2023/01/16 11:28:29;;;;;;;;;;;;;;;28.89;21.89;100350.19;5060585;28;1371;-21
2023/01/16 11:30:58;;;;;;;;;;;;;;;27.67;23.19;100338.75;5078531;28;1170;-21
2023/01/16 11:33:30;;;;;;;;;;;;;;;27.36;23.55;100330.00;5077693;28;1898;-21
2023/01/16 11:35:56;;;;;;;;;;;;;;;28.27;22.56;100327.47;5078081;28;979;-21
2023/01/16 11:38:22;;;;;;;;;;;;;;;28.64;22.30;100337.22;5077181;28;1071;-21
2023/01/16 11:40:48;;;;;;;;;;;;;;;28.98;21.87;100326.50;5076645;28;988;-22
2023/01/16 11:46:07;;;;;;;;;;;;;;;27.33;23.70;100319.56;5065296;28;985;-21
2023/01/16 11:48:39;;;;;;;;;;;;;;;26.63;24.75;100324.47;5075581;28;1104;-21
2023/01/16 11:51:05;;;;;;;;;;;;;;;28.31;22.62;100317.91;5067389;28;1981;-21
2023/01/16 11:53:31;;;;;;;;;;;;;;;27.90;22.90;100316.03;5077457;28;1190;-21
2023/01/16 11:56:06;;;;;;;;;;;;;;;26.74;24.22;100309.66;5078085;28;1078;-21
2023/01/16 11:58:43;;;;;;;;;;;;;;;27.60;23.59;100317.06;5077444;28;1096;-22
2023/01/16 12:01:21;;;;;;;;;;;;;;;28.20;22.63;100308.53;5077684;28;1087;-22
2023/01/16 12:03:50;;;;;;;;;;;;;;;28.81;21.80;100303.31;5057961;28;894;-23
2023/01/16 12:06:26;;;;;;;;;;;;;;;28.81;21.87;100294.38;5076239;28;1051;-21
2023/01/16 12:09:04;;;;;;;;;;;;;;;26.89;27.04;100273.69;5039464;28;1057;-22
2023/01/16 12:11:37;;;;;;;;;;;;;;;27.34;25.77;100280.75;5067151;28;2012;-22
2023/01/16 12:14:18;;;;;;;;;;;;;;;28.55;24.24;100283.28;5053955;28;1694;-21
2023/01/16 12:16:47;;;;;;;;;;;;;;;28.40;27.73;100277.19;5072806;28;985;-21
2023/01/16 12:19:18;;;;;;;;;;;;;;;27.00;27.80;100267.78;5048792;28;1157;-21
2023/01/16 12:21:43;;;;;;;;;;;;;;;26.80;28.87;100270.28;5074305;28;1083;-21
2023/01/16 12:24:24;;;;;;;;;;;;;;;28.32;25.96;100273.63;5076608;28;1083;-21
2023/01/16 12:26:49;;;;;;;;;;;;;;;28.68;25.04;100285.19;5063763;28;1063;-21
2023/01/16 12:29:14;;;;;;;;;;;;;;;29.27;24.16;100281.94;5076621;28;1103;-23
2023/01/16 12:31:41;;;;;;;;;;;;;;;27.41;25.67;100278.91;5071799;28;1893;-22
2023/01/16 12:34:12;;;;;;;;;;;;;;;26.73;26.67;100272.06;5076643;28;1149;-22
2023/01/16 12:36:37;;;;;;;;;;;;;;;28.33;25.33;100277.16;5065558;28;1182;-22
2023/01/16 12:39:23;;;;;;;;;;;;;;;28.22;24.61;100276.69;5058721;28;1032;-22
2023/01/16 12:44:57;;;;;;;;;;;;;;;28.09;25.22;100284.75;5067639;28;1120;-22
2023/01/16 12:47:22;;;;;;;;;;;;;;;28.36;24.64;100283.00;5070634;28;1028;-22
2023/01/16 12:50:11;;;;;;;;;;;;;;;28.71;24.18;100286.66;5070059;28;1214;-22
2023/01/16 12:52:39;;;;;;;;;;;;;;;28.16;24.74;100272.09;5048240;28;1962;-22
2023/01/16 12:55:07;;;;;;;;;;;;;;;28.28;24.63;100272.34;5072841;28;1156;-21
2023/01/16 12:57:52;;;;;;;;;;;;;;;28.32;24.65;100275.47;5076744;28;1024;-22
2023/01/16 13:00:18;;;;;;;;;;;;;;;28.70;24.03;100275.00;5063504;28;1059;-21
2023/01/16 13:02:55;;;;;;;;;;;;;;;28.28;24.46;100275.03;5050864;28;1060;-22
2023/01/16 13:05:22;;;;;;;;;;;;;;;28.18;24.68;100269.16;5072326;28;1092;-22
2023/01/16 13:07:51;;;;;;;;;;;;;;;28.20;24.55;100269.81;5066692;28;1083;-21
2023/01/16 13:13:21;;;;;;;;;;;;;;;28.51;23.35;100254.13;5069752;28;1969;-22
2023/01/16 13:15:50;;;;;;;;;;;;;;;27.94;24.65;100249.75;5050700;28;974;-23
2023/01/16 13:18:18;;;;;;;;;;;;;;;28.52;23.94;100253.09;5057972;28;1227;-22
2023/01/16 13:20:44;;;;;;;;;;;;;;;28.80;23.95;100252.09;5075961;28;1243;-21
2023/01/16 13:23:28;;;;;;;;;;;;;;;28.49;23.94;100251.63;5058900;28;1109;-22
2023/01/16 13:25:57;;;;;;;;;;;;;;;28.25;24.49;100248.41;5055948;28;1005;-22
2023/01/16 13:28:26;;;;;;;;;;;;;;;28.43;24.32;100234.34;5054366;28;942;-21
2023/01/16 13:30:52;;;;;;;;;;;;;;;28.57;24.21;100239.78;5070554;28;1136;-21
2023/01/16 13:33:18;;;;;;;;;;;;;;;28.65;23.57;100242.28;5058211;28;1894;-22
2023/01/16 13:35:46;;;;;;;;;;;;;;;28.44;24.30;100229.78;5057941;28;1046;-21
2023/01/16 13:38:21;;;;;;;;;;;;;;;28.48;24.09;100239.13;5065855;28;1151;-22
2023/01/16 13:40:49;;;;;;;;;;;;;;;28.35;24.50;100231.81;5056210;28;1025;-21
2023/01/16 13:46:02;;;;;;;;;;;;;;;28.51;23.21;100233.31;5041053;28;1002;-21
2023/01/16 13:48:28;;;;;;;;;;;;;;;28.22;23.27;100235.28;5056174;28;1068;-22